Matagorda, TX (77457)

4:48 PM CDT on October 19, 2017 (GMT -0500)
Selkirk Island | | Change Station

Elev 43 ft 28.77 °N, 95.99 °W | Updated 8 seconds ago

Overcast
Overcast
81.4 °F
Feels Like 85 °F
N
5.0
Wind Variable Wind from West

Today
High -- | Low -- °F
--% Chance of Precip.
Yesterday
High -- | Low -- °F
Precip. -- in
Pressure 30.05 in
Visibility 10.0 miles
Clouds Few 3400 ft
Few 8500 ft
Overcast 10000 ft
Heat Index 85 °F
Dew Point 70 °F
Humidity 70%
Rainfall 0.00 in
Snow Depth Not available.
7:27 AM 6:49 PM
New Moon, 0% visible
METAR KPSX 192053Z AUTO 09011KT 10SM FEW034 FEW085 OVC100 27/20 A3005 RMK AO2 RAB43E50 SLP174 P0000 60000 T02670200 56016
Pressure 30.05 in
Visibility 10.0 miles
Clouds Few 3400 ft
Few 8500 ft
Overcast 10000 ft
Heat Index 85 °F
Dew Point 70 °F
Humidity 70%
Rainfall 0.00 in
Snow Depth Not available.
7:27 AM 6:49 PM
New Moon, 0% visible
METAR KPSX 192053Z AUTO 09011KT 10SM FEW034 FEW085 OVC100 27/20 A3005 RMK AO2 RAB43E50 SLP174 P0000 60000 T02670200 56016

Get Severe Weather Alerts

Thanks for signing up!

Be on the lookout for a verification email in your inbox.

You'll start receiving the daily forecast at 6 AM.

×

10-Day Weather Forecast

Almanac

Astronomy

Oct. 19, 2017 Rise Set
Actual Time
Civil Twilight
Nautical Twilight
Astronomical Twilight
Moon
Length of Visible Light
Length of Day
Tomorrow will be .
, % of the Moon is Illuminated

Today's Extremes

State Highs State Lows

Community

WunderPhotos

Category 6

Welcome to Category 6. This is the collective home for Weather Underground's featured writeups by Dr. Jeff Masters (right), Bob Henson (left), Chris Burt, and other regular contributors.

Nearby

Air Quality

  Air Quality AQ Index Pollutant
Not available.

Snow Depth

Station Depth Elevation

Earthquake Activity

City Distance Mag. Time & Date
Minimum magnitude displayed is 2.5.

Coastal Water Temperatures

Place Temperature

Stations

Nearby Weather Stations

Station Location Temp. Windchill Dew Point Humidity Wind Precip. Elev Updated Type
                   

Watches & Warnings

There are currently no watches in effect.